Time;durP1;ratioP1;P1;durP2;ratioP2;P2;SDS_P1;SDS_P2;PMS_P1;PMS_P2;Temp;Humidity;BMP_temperature;BMP_pressure;BME280_temperature;BME280_humidity;BME280_pressure;Samples;Min_cycle;Max_cycle;Signal;HPM_P1;HPM_P2
2021/09/07 00:02:28;;;;;;;13.48;10.82;;;;;;;;;;5033430;28;20036;-65
2021/09/07 00:05:32;;;;;;;14.27;10.27;;;;;;;;;;5033181;28;20053;-65
2021/09/07 00:08:37;;;;;;;15.15;10.38;;;;;;;;;;5021196;28;20044;-66
2021/09/07 00:11:41;;;;;;;17.73;11.15;;;;;;;;;;5033160;28;20044;-66
2021/09/07 00:14:45;;;;;;;16.42;10.77;;;;;;;;;;5033361;28;20051;-66
2021/09/07 00:17:50;;;;;;;15.70;10.90;;;;;;;;;;5033141;28;20044;-65
2021/09/07 00:20:55;;;;;;;16.02;10.32;;;;;;;;;;5033015;28;20048;-65
2021/09/07 00:23:59;;;;;;;15.43;10.70;;;;;;;;;;5033001;28;20087;-65
2021/09/07 00:27:04;;;;;;;19.27;10.95;;;;;;;;;;5032885;28;20056;-66
2021/09/07 00:30:08;;;;;;;14.02;10.52;;;;;;;;;;5032924;28;20520;-65
2021/09/07 00:33:12;;;;;;;14.68;11.57;;;;;;;;;;5032645;28;20048;-65
2021/09/07 00:36:17;;;;;;;11.88;10.40;;;;;;;;;;5032527;28;20056;-65
2021/09/07 00:39:21;;;;;;;18.25;11.50;;;;;;;;;;5033022;28;20503;-65
2021/09/07 00:42:25;;;;;;;14.65;10.25;;;;;;;;;;5032719;28;20036;-66
2021/09/07 00:45:29;;;;;;;12.52;10.75;;;;;;;;;;5020186;28;20072;-65
2021/09/07 00:48:33;;;;;;;13.98;10.93;;;;;;;;;;5032852;28;20044;-65
2021/09/07 00:51:39;;;;;;;13.82;10.75;;;;;;;;;;5032832;28;20056;-65
2021/09/07 00:54:44;;;;;;;15.43;11.20;;;;;;;;;;5032475;28;20040;-65
2021/09/07 00:57:49;;;;;;;15.73;11.57;;;;;;;;;;5032100;28;20044;-65
2021/09/07 01:00:53;;;;;;;18.13;11.32;;;;;;;;;;5032198;28;20040;-65
2021/09/07 01:03:58;;;;;;;12.82;10.65;;;;;;;;;;5031958;28;20040;-66
2021/09/07 01:07:04;;;;;;;14.18;10.88;;;;;;;;;;5032212;28;20060;-66
2021/09/07 01:10:10;;;;;;;16.75;11.63;;;;;;;;;;5032268;28;20056;-66
2021/09/07 01:13:15;;;;;;;17.70;11.00;;;;;;;;;;5032114;28;20044;-66
2021/09/07 01:16:19;;;;;;;17.40;10.90;;;;;;;;;;5032365;28;20067;-66
2021/09/07 01:19:24;;;;;;;15.85;10.43;;;;;;;;;;5032040;28;20586;-65
2021/09/07 01:22:28;;;;;;;15.32;11.38;;;;;;;;;;5031984;28;20041;-65
2021/09/07 01:25:32;;;;;;;17.17;10.80;;;;;;;;;;5031878;28;20057;-65
2021/09/07 01:28:39;;;;;;;15.27;10.80;;;;;;;;;;5019548;28;20044;-65
2021/09/07 01:31:45;;;;;;;15.23;11.13;;;;;;;;;;5031844;28;20049;-66
2021/09/07 01:34:49;;;;;;;13.98;11.27;;;;;;;;;;5031779;28;20052;-65
2021/09/07 01:37:53;;;;;;;15.73;10.77;;;;;;;;;;5031709;28;20049;-65
2021/09/07 01:40:58;;;;;;;16.95;11.40;;;;;;;;;;5031720;28;20061;-65
2021/09/07 01:44:02;;;;;;;16.90;11.98;;;;;;;;;;5031487;28;20040;-65
2021/09/07 01:47:09;;;;;;;20.55;11.38;;;;;;;;;;5031116;28;20524;-66
2021/09/07 01:50:13;;;;;;;14.15;11.77;;;;;;;;;;5031496;28;20036;-66
2021/09/07 01:53:18;;;;;;;16.02;12.07;;;;;;;;;;5031651;28;20048;-66
2021/09/07 01:56:23;;;;;;;14.60;10.25;;;;;;;;;;5031329;28;20040;-66
2021/09/07 01:59:28;;;;;;;18.80;11.02;;;;;;;;;;5031311;28;20044;-65
2021/09/07 02:02:33;;;;;;;15.15;10.90;;;;;;;;;;5031335;28;20044;-65
2021/09/07 02:05:37;;;;;;;16.58;11.38;;;;;;;;;;5031094;28;20052;-65
2021/09/07 02:08:42;;;;;;;17.23;11.23;;;;;;;;;;5031043;28;20064;-65
2021/09/07 02:11:46;;;;;;;14.52;11.38;;;;;;;;;;5031079;28;20048;-65
2021/09/07 02:14:52;;;;;;;15.07;10.73;;;;;;;;;;5018679;28;20473;-65
2021/09/07 02:17:57;;;;;;;14.38;11.77;;;;;;;;;;5031069;28;20048;-66
2021/09/07 02:21:02;;;;;;;15.50;10.77;;;;;;;;;;5030971;28;20040;-65
2021/09/07 02:24:06;;;;;;;14.20;10.23;;;;;;;;;;5030846;28;20048;-65
2021/09/07 02:27:11;;;;;;;13.07;10.85;;;;;;;;;;5030934;28;20056;-65
2021/09/07 02:30:16;;;;;;;17.40;11.10;;;;;;;;;;5031042;28;20060;-65
2021/09/07 02:33:22;;;;;;;14.63;10.95;;;;;;;;;;5030720;28;20051;-65
2021/09/07 02:36:27;;;;;;;12.35;10.02;;;;;;;;;;5030927;28;20048;-65
2021/09/07 02:39:32;;;;;;;14.63;10.43;;;;;;;;;;5030883;28;20041;-65
2021/09/07 02:42:37;;;;;;;12.60;10.95;;;;;;;;;;5030759;28;20397;-65
2021/09/07 02:45:42;;;;;;;12.40;10.88;;;;;;;;;;5030603;28;20052;-65
2021/09/07 02:48:47;;;;;;;11.90;10.73;;;;;;;;;;5030756;28;20036;-65
2021/09/07 02:51:51;;;;;;;15.45;10.27;;;;;;;;;;5030875;28;20068;-65
2021/09/07 02:54:56;;;;;;;16.17;10.35;;;;;;;;;;5030905;28;20049;-65
2021/09/07 02:58:03;;;;;;;13.50;10.90;;;;;;;;;;5030592;28;20049;-65
2021/09/07 03:01:08;;;;;;;13.10;10.95;;;;;;;;;;5034647;28;20044;-65
2021/09/07 03:04:13;;;;;;;13.05;10.52;;;;;;;;;;5034717;28;20381;-65
2021/09/07 03:07:20;;;;;;;12.85;10.80;;;;;;;;;;5034376;28;20060;-65
2021/09/07 03:10:25;;;;;;;17.52;10.32;;;;;;;;;;5034404;28;20040;-66
2021/09/07 03:13:30;;;;;;;14.13;10.25;;;;;;;;;;5034277;28;20045;-65
2021/09/07 03:16:34;;;;;;;11.60;10.38;;;;;;;;;;5034262;28;20366;-65
2021/09/07 03:19:40;;;;;;;14.70;11.00;;;;;;;;;;5034280;28;20120;-65
2021/09/07 03:22:45;;;;;;;14.40;11.82;;;;;;;;;;5034264;28;20049;-65
2021/09/07 03:25:49;;;;;;;14.52;11.27;;;;;;;;;;5034105;28;20404;-65
2021/09/07 03:28:55;;;;;;;14.35;11.20;;;;;;;;;;5034270;28;20045;-65
2021/09/07 03:32:00;;;;;;;12.13;10.43;;;;;;;;;;5034123;28;20049;-65
2021/09/07 03:35:04;;;;;;;15.60;10.80;;;;;;;;;;5021777;28;20041;-65
2021/09/07 03:38:09;;;;;;;13.02;10.98;;;;;;;;;;5034025;28;20425;-66
2021/09/07 03:41:13;;;;;;;18.40;11.05;;;;;;;;;;5034013;28;20060;-66
2021/09/07 03:44:20;;;;;;;15.70;10.30;;;;;;;;;;5034132;28;20052;-66
2021/09/07 03:47:24;;;;;;;14.82;11.77;;;;;;;;;;5033947;28;20056;-66
2021/09/07 03:50:28;;;;;;;14.85;11.02;;;;;;;;;;5033881;28;20044;-66
2021/09/07 03:53:34;;;;;;;14.20;11.02;;;;;;;;;;5033702;28;20040;-66
2021/09/07 03:56:40;;;;;;;18.13;10.75;;;;;;;;;;5033619;28;20603;-66
2021/09/07 03:59:44;;;;;;;13.77;10.02;;;;;;;;;;5033641;28;20037;-66
2021/09/07 04:02:49;;;;;;;18.17;11.05;;;;;;;;;;5033582;28;20112;-66
2021/09/07 04:05:54;;;;;;;22.23;11.93;;;;;;;;;;5033572;28;20064;-66
2021/09/07 04:08:59;;;;;;;11.02;9.88;;;;;;;;;;5033875;28;20056;-66
2021/09/07 04:12:04;;;;;;;17.42;10.77;;;;;;;;;;5020417;28;20048;-66
2021/09/07 04:15:09;;;;;;;17.88;10.95;;;;;;;;;;5033680;28;20065;-66
2021/09/07 04:18:16;;;;;;;14.60;10.82;;;;;;;;;;5033294;28;20040;-65
2021/09/07 04:21:22;;;;;;;18.25;10.50;;;;;;;;;;5033368;28;20405;-66
2021/09/07 04:24:26;;;;;;;34.47;12.65;;;;;;;;;;5033160;28;20060;-66
2021/09/07 04:27:32;;;;;;;32.78;11.75;;;;;;;;;;5021023;28;20060;-65
2021/09/07 04:30:36;;;;;;;31.33;11.50;;;;;;;;;;5033150;28;20405;-65
2021/09/07 04:33:40;;;;;;;17.33;10.63;;;;;;;;;;5032989;28;20041;-65
2021/09/07 04:36:45;;;;;;;14.55;10.70;;;;;;;;;;5033002;28;20040;-65
2021/09/07 04:39:52;;;;;;;16.77;10.82;;;;;;;;;;5033285;28;20056;-65
2021/09/07 04:42:56;;;;;;;18.20;10.77;;;;;;;;;;5032751;28;20507;-66
2021/09/07 04:46:02;;;;;;;15.85;11.10;;;;;;;;;;5012015;28;20053;-66
2021/09/07 04:49:06;;;;;;;21.40;11.38;;;;;;;;;;5013328;28;20048;-66
2021/09/07 04:52:11;;;;;;;21.83;11.27;;;;;;;;;;5012351;28;20061;-65
2021/09/07 04:55:15;;;;;;;23.20;11.98;;;;;;;;;;5013005;28;20037;-66
2021/09/07 04:58:19;;;;;;;21.60;11.20;;;;;;;;;;5012601;28;20053;-65
2021/09/07 05:01:24;;;;;;;19.50;10.90;;;;;;;;;;5012770;28;20056;-65
2021/09/07 05:04:28;;;;;;;29.98;13.52;;;;;;;;;;5012546;28;20041;-65
2021/09/07 05:07:33;;;;;;;17.98;11.13;;;;;;;;;;5012596;28;20061;-66
2021/09/07 05:10:37;;;;;;;12.63;9.88;;;;;;;;;;5012469;28;20045;-65
2021/09/07 05:13:42;;;;;;;15.05;10.55;;;;;;;;;;5012545;28;20041;-65
2021/09/07 05:16:46;;;;;;;15.82;10.40;;;;;;;;;;5012521;28;20041;-66
2021/09/07 05:19:50;;;;;;;15.18;11.20;;;;;;;;;;5012596;28;20049;-68
2021/09/07 05:22:55;;;;;;;13.40;9.50;;;;;;;;;;5011217;28;20516;-67
2021/09/07 05:25:59;;;;;;;21.88;10.43;;;;;;;;;;5012135;28;20057;-67
2021/09/07 05:29:03;;;;;;;22.88;10.63;;;;;;;;;;5012486;28;20049;-67
2021/09/07 05:32:10;;;;;;;20.23;10.50;;;;;;;;;;5012226;28;20397;-67
2021/09/07 05:35:15;;;;;;;14.73;8.77;;;;;;;;;;5000058;28;20045;-66
2021/09/07 05:38:19;;;;;;;15.27;9.10;;;;;;;;;;5011604;28;20052;-67
2021/09/07 05:41:23;;;;;;;16.33;10.63;;;;;;;;;;5011365;28;20048;-67
2021/09/07 05:44:27;;;;;;;17.65;10.52;;;;;;;;;;5011754;28;20049;-66
2021/09/07 05:47:32;;;;;;;15.07;10.15;;;;;;;;;;5011731;28;20049;-67
2021/09/07 05:50:36;;;;;;;16.25;9.65;;;;;;;;;;5012054;28;20037;-66
2021/09/07 05:53:41;;;;;;;12.55;9.05;;;;;;;;;;5011734;28;20049;-66
2021/09/07 05:56:45;;;;;;;23.30;11.00;;;;;;;;;;5011888;28;20049;-67
2021/09/07 05:59:51;;;;;;;18.27;9.88;;;;;;;;;;5012129;28;20048;-66
2021/09/07 06:02:57;;;;;;;20.05;11.00;;;;;;;;;;5011860;28;20065;-66
2021/09/07 06:06:01;;;;;;;25.60;10.27;;;;;;;;;;5011821;28;20057;-67
2021/09/07 06:09:05;;;;;;;18.13;10.55;;;;;;;;;;5011748;28;20073;-65
2021/09/07 06:12:10;;;;;;;13.57;10.05;;;;;;;;;;5011361;28;20109;-68
2021/09/07 06:15:14;;;;;;;17.38;10.10;;;;;;;;;;5010803;28;20048;-66
2021/09/07 06:18:19;;;;;;;21.55;10.82;;;;;;;;;;5011846;28;20045;-69
2021/09/07 06:21:23;;;;;;;14.35;11.15;;;;;;;;;;5011543;28;20071;-71
2021/09/07 06:24:27;;;;;;;21.38;11.10;;;;;;;;;;5011017;28;20041;-70
2021/09/07 06:27:32;;;;;;;19.80;10.85;;;;;;;;;;5011475;28;20516;-69
2021/09/07 06:30:36;;;;;;;16.55;10.13;;;;;;;;;;5011377;28;20037;-67
2021/09/07 06:33:40;;;;;;;18.00;10.25;;;;;;;;;;5010821;28;20053;-65
2021/09/07 06:36:44;;;;;;;16.02;10.23;;;;;;;;;;5011594;28;20049;-71
2021/09/07 06:39:49;;;;;;;11.85;8.95;;;;;;;;;;4999328;28;20052;-66
2021/09/07 06:42:55;;;;;;;16.48;8.55;;;;;;;;;;5010343;28;20044;-66
2021/09/07 06:46:00;;;;;;;14.75;7.50;;;;;;;;;;5010215;28;20073;-67
2021/09/07 06:49:04;;;;;;;17.85;7.10;;;;;;;;;;5011635;28;20049;-67
2021/09/07 06:52:08;;;;;;;13.48;6.88;;;;;;;;;;5011652;28;20061;-68
2021/09/07 06:55:13;;;;;;;10.23;6.25;;;;;;;;;;5010901;28;20049;-67
2021/09/07 06:58:17;;;;;;;8.50;6.43;;;;;;;;;;5011406;28;20041;-67
2021/09/07 07:01:21;;;;;;;34.10;7.53;;;;;;;;;;5010286;28;20498;-68
2021/09/07 07:04:26;;;;;;;10.10;6.20;;;;;;;;;;5010501;28;20051;-67
2021/09/07 07:07:30;;;;;;;12.10;6.65;;;;;;;;;;5010326;28;20077;-66
2021/09/07 07:10:34;;;;;;;12.20;5.90;;;;;;;;;;5011242;28;20492;-65
2021/09/07 07:13:39;;;;;;;8.68;5.90;;;;;;;;;;5011098;28;20049;-66
2021/09/07 07:16:43;;;;;;;16.35;6.03;;;;;;;;;;5011063;28;20034;-66
2021/09/07 07:19:50;;;;;;;14.40;5.72;;;;;;;;;;5010899;28;20052;-67
2021/09/07 07:22:54;;;;;;;10.32;5.75;;;;;;;;;;5010755;28;20428;-68
2021/09/07 07:25:58;;;;;;;9.20;5.60;;;;;;;;;;5009629;28;20057;-68
2021/09/07 07:29:03;;;;;;;12.88;6.50;;;;;;;;;;5010841;28;20620;-65
2021/09/07 07:32:07;;;;;;;9.85;5.78;;;;;;;;;;5010652;28;20397;-63
2021/09/07 07:35:12;;;;;;;8.93;5.70;;;;;;;;;;5011006;28;20034;-66
2021/09/07 07:38:16;;;;;;;8.52;5.78;;;;;;;;;;5009869;28;20034;-66
2021/09/07 07:41:20;;;;;;;10.70;5.72;;;;;;;;;;5010851;28;20042;-68
2021/09/07 07:44:25;;;;;;;8.68;5.30;;;;;;;;;;5010511;28;20041;-66
2021/09/07 07:47:30;;;;;;;10.38;5.55;;;;;;;;;;5013357;28;20046;-66
2021/09/07 07:50:36;;;;;;;12.68;5.90;;;;;;;;;;5014097;28;20044;-65
2021/09/07 07:53:40;;;;;;;9.32;5.53;;;;;;;;;;5013927;28;20512;-67
2021/09/07 07:56:44;;;;;;;8.60;5.57;;;;;;;;;;5014003;28;20030;-66
2021/09/07 07:59:49;;;;;;;9.02;4.93;;;;;;;;;;5014148;28;20042;-66
2021/09/07 08:02:53;;;;;;;7.47;5.40;;;;;;;;;;5013779;28;20366;-68
2021/09/07 08:05:59;;;;;;;10.68;5.43;;;;;;;;;;5014015;28;20042;-68
2021/09/07 08:09:03;;;;;;;13.13;5.97;;;;;;;;;;5013660;28;20049;-66
2021/09/07 08:12:08;;;;;;;13.98;6.10;;;;;;;;;;5014143;28;20382;-65
2021/09/07 08:15:12;;;;;;;8.77;5.82;;;;;;;;;;5013667;28;20054;-67
2021/09/07 08:18:16;;;;;;;9.32;5.70;;;;;;;;;;5013602;28;20046;-69
2021/09/07 08:21:21;;;;;;;9.00;5.47;;;;;;;;;;5013449;28;20042;-65
2021/09/07 08:24:27;;;;;;;8.07;5.47;;;;;;;;;;5012113;28;20505;-65
2021/09/07 08:27:31;;;;;;;14.00;5.47;;;;;;;;;;5013173;28;20050;-66
2021/09/07 08:30:36;;;;;;;14.10;5.60;;;;;;;;;;5013226;28;20537;-66
2021/09/07 08:33:40;;;;;;;10.07;5.55;;;;;;;;;;5012688;28;20045;-66
2021/09/07 08:36:44;;;;;;;8.88;5.65;;;;;;;;;;5013361;28;20397;-67
2021/09/07 08:39:49;;;;;;;8.23;6.22;;;;;;;;;;5013319;28;20034;-67
2021/09/07 08:42:53;;;;;;;8.88;5.45;;;;;;;;;;5013031;28;20034;-64
2021/09/07 08:45:59;;;;;;;16.40;7.32;;;;;;;;;;5022767;28;20053;-69
2021/09/07 08:49:04;;;;;;;9.35;6.22;;;;;;;;;;5032491;28;20053;-66
2021/09/07 08:52:08;;;;;;;14.10;6.05;;;;;;;;;;5032705;28;20041;-68
2021/09/07 08:55:13;;;;;;;16.45;6.55;;;;;;;;;;5032678;28;20048;-72
2021/09/07 08:58:17;;;;;;;13.95;6.05;;;;;;;;;;5032604;28;20048;-69
2021/09/07 09:01:21;;;;;;;11.48;6.00;;;;;;;;;;5032369;28;20052;-66
2021/09/07 09:04:32;;;;;;;10.95;6.55;;;;;;;;;;5032914;28;20048;-67
2021/09/07 09:07:36;;;;;;;13.23;6.40;;;;;;;;;;5032563;28;20052;-67
2021/09/07 09:10:42;;;;;;;10.57;5.80;;;;;;;;;;5032514;28;20049;-66
2021/09/07 09:13:47;;;;;;;9.63;6.00;;;;;;;;;;5032253;28;20048;-71
2021/09/07 09:16:51;;;;;;;24.98;8.35;;;;;;;;;;5020234;28;20477;-67
2021/09/07 09:20:02;;;;;;;16.38;6.55;;;;;;;;;;5032462;28;20044;-66
2021/09/07 09:23:08;;;;;;;13.65;6.47;;;;;;;;;;5032009;28;20041;-73
2021/09/07 09:26:13;;;;;;;12.77;6.45;;;;;;;;;;5032143;28;20040;-67
2021/09/07 09:29:25;;;;;;;7.80;6.47;;;;;;;;;;5032086;28;20052;-67
2021/09/07 09:32:29;;;;;;;14.20;7.10;;;;;;;;;;5019913;28;20042;-67
2021/09/07 09:35:47;;;;;;;10.32;6.18;;;;;;;;;;5032092;28;20053;-66
2021/09/07 09:38:51;;;;;;;13.70;6.30;;;;;;;;;;5032155;28;20048;-68
2021/09/07 09:41:56;;;;;;;8.73;6.75;;;;;;;;;;5019877;28;20401;-68
2021/09/07 09:45:04;;;;;;;12.38;7.15;;;;;;;;;;5031693;28;20049;-67
2021/09/07 09:48:11;;;;;;;11.40;7.10;;;;;;;;;;5031647;28;20052;-66
2021/09/07 09:51:17;;;;;;;16.17;7.75;;;;;;;;;;5031536;28;20044;-66
2021/09/07 09:54:22;;;;;;;12.15;6.70;;;;;;;;;;5031533;28;20064;-67
2021/09/07 09:57:26;;;;;;;9.93;6.95;;;;;;;;;;5031844;28;20048;-65
2021/09/07 10:00:30;;;;;;;9.35;6.50;;;;;;;;;;5031518;28;20045;-66
2021/09/07 10:03:37;;;;;;;7.68;6.63;;;;;;;;;;5031326;28;20034;-68
2021/09/07 10:06:50;;;;;;;8.98;6.72;;;;;;;;;;5019053;28;20041;-65
2021/09/07 10:09:56;;;;;;;9.35;6.50;;;;;;;;;;5030531;28;20037;-68
2021/09/07 10:13:02;;;;;;;12.50;6.43;;;;;;;;;;5031174;28;20477;-67
2021/09/07 10:16:13;;;;;;;14.07;6.90;;;;;;;;;;5019364;28;20044;-66
2021/09/07 10:19:37;;;;;;;8.52;6.70;;;;;;;;;;5031221;28;20048;-67
2021/09/07 10:23:31;;;;;;;13.02;7.00;;;;;;;;;;5018629;28;20033;-66
2021/09/07 10:26:42;;;;;;;8.55;6.75;;;;;;;;;;5031030;28;20045;-66
2021/09/07 10:29:46;;;;;;;21.20;6.95;;;;;;;;;;5031312;28;20041;-65
2021/09/07 10:33:10;;;;;;;7.80;7.00;;;;;;;;;;5031794;28;20064;-69
2021/09/07 10:36:18;;;;;;;9.40;6.53;;;;;;;;;;5032108;28;20030;-71
2021/09/07 10:39:33;;;;;;;8.65;7.50;;;;;;;;;;5032718;28;20045;-72
2021/09/07 10:42:48;;;;;;;8.43;6.85;;;;;;;;;;5032151;28;20034;-71
2021/09/07 10:45:55;;;;;;;12.15;7.15;;;;;;;;;;5031592;28;20057;-70
2021/09/07 10:49:13;;;;;;;11.20;7.07;;;;;;;;;;5032406;28;20064;-72
2021/09/07 10:52:22;;;;;;;10.15;6.82;;;;;;;;;;5031087;28;20057;-70
2021/09/07 10:55:26;;;;;;;9.57;7.03;;;;;;;;;;5031742;28;20102;-69
2021/09/07 10:58:33;;;;;;;9.43;7.03;;;;;;;;;;5031323;28;20034;-68
2021/09/07 11:01:37;;;;;;;9.20;6.75;;;;;;;;;;5031621;28;20033;-70
2021/09/07 11:04:50;;;;;;;9.75;6.55;;;;;;;;;;5032312;28;20381;-69
2021/09/07 11:08:11;;;;;;;9.95;7.95;;;;;;;;;;5030695;28;20057;-69
2021/09/07 11:11:23;;;;;;;8.77;6.68;;;;;;;;;;5031989;28;20037;-69
2021/09/07 11:14:28;;;;;;;13.25;7.00;;;;;;;;;;5019092;28;20041;-70
2021/09/07 11:17:33;;;;;;;16.42;7.35;;;;;;;;;;5030929;28;20053;-70
2021/09/07 11:20:42;;;;;;;10.90;7.55;;;;;;;;;;5020645;28;20085;-68
2021/09/07 11:23:47;;;;;;;12.32;7.50;;;;;;;;;;5023159;28;20044;-69
2021/09/07 11:26:58;;;;;;;9.05;7.30;;;;;;;;;;5034459;28;20057;-69
2021/09/07 11:30:19;;;;;;;12.32;7.35;;;;;;;;;;5034416;28;20402;-68
2021/09/07 11:33:25;;;;;;;12.90;7.43;;;;;;;;;;5033332;28;20060;-70
2021/09/07 11:36:29;;;;;;;10.13;6.95;;;;;;;;;;5033714;28;20237;-68
2021/09/07 11:39:34;;;;;;;9.38;7.50;;;;;;;;;;5034834;28;20052;-69
2021/09/07 11:42:49;;;;;;;9.25;7.78;;;;;;;;;;5034799;28;20037;-69
2021/09/07 11:46:05;;;;;;;11.80;7.50;;;;;;;;;;5034022;28;20045;-69
2021/09/07 11:49:11;;;;;;;9.07;7.03;;;;;;;;;;5022437;28;20056;-68
2021/09/07 11:52:17;;;;;;;11.38;7.32;;;;;;;;;;5034015;28;20046;-69
2021/09/07 11:55:36;;;;;;;25.60;8.13;;;;;;;;;;5022383;28;20045;-70
2021/09/07 11:58:41;;;;;;;10.68;7.60;;;;;;;;;;5034142;28;20056;-69
2021/09/07 12:01:46;;;;;;;10.27;7.97;;;;;;;;;;5022283;28;20393;-69
2021/09/07 12:04:57;;;;;;;10.13;7.65;;;;;;;;;;5034172;28;20052;-69
2021/09/07 12:08:01;;;;;;;11.32;7.93;;;;;;;;;;5034210;28;20052;-69
2021/09/07 12:11:10;;;;;;;12.93;6.93;;;;;;;;;;5021934;28;20052;-70
2021/09/07 12:14:23;;;;;;;10.85;7.13;;;;;;;;;;5034393;28;20037;-68
2021/09/07 12:17:36;;;;;;;8.63;7.20;;;;;;;;;;5033295;28;20056;-69
2021/09/07 12:20:40;;;;;;;16.30;7.95;;;;;;;;;;5035140;28;20041;-70
2021/09/07 12:23:48;;;;;;;7.60;6.80;;;;;;;;;;5034031;28;20048;-72
2021/09/07 12:26:52;;;;;;;15.20;7.50;;;;;;;;;;5034524;28;20382;-71
2021/09/07 12:30:06;;;;;;;8.45;6.82;;;;;;;;;;5033703;28;20508;-69
2021/09/07 12:33:14;;;;;;;8.50;7.22;;;;;;;;;;5020807;28;20560;-70
2021/09/07 12:36:23;;;;;;;7.93;6.35;;;;;;;;;;5033809;28;20045;-69
2021/09/07 12:39:27;;;;;;;7.82;6.40;;;;;;;;;;5033628;28;20029;-71
2021/09/07 12:42:32;;;;;;;8.43;6.70;;;;;;;;;;5021323;28;20025;-70
2021/09/07 12:45:36;;;;;;;12.27;6.72;;;;;;;;;;5033146;28;20641;-69
2021/09/07 12:48:42;;;;;;;12.07;6.82;;;;;;;;;;5033250;28;20132;-68
2021/09/07 12:51:46;;;;;;;10.60;7.18;;;;;;;;;;5021134;28;20055;-68
2021/09/07 12:54:51;;;;;;;10.10;6.97;;;;;;;;;;5033028;28;20048;-70
2021/09/07 12:57:56;;;;;;;8.90;6.45;;;;;;;;;;5032939;28;20401;-69
2021/09/07 13:01:01;;;;;;;8.40;6.15;;;;;;;;;;5033262;28;20045;-69
2021/09/07 13:04:06;;;;;;;10.13;7.00;;;;;;;;;;5021148;28;20484;-69
2021/09/07 13:07:13;;;;;;;17.33;6.63;;;;;;;;;;5032836;28;20060;-69
2021/09/07 13:10:17;;;;;;;12.80;6.90;;;;;;;;;;5034292;28;20108;-70
2021/09/07 13:13:22;;;;;;;10.48;6.45;;;;;;;;;;5032836;28;20048;-72
2021/09/07 13:16:26;;;;;;;8.15;6.45;;;;;;;;;;5021239;28;20043;-76
2021/09/07 13:19:30;;;;;;;9.70;6.53;;;;;;;;;;5033450;28;20045;-69
2021/09/07 13:22:35;;;;;;;7.47;5.53;;;;;;;;;;5032747;28;20029;-77
2021/09/07 13:25:39;;;;;;;8.32;5.25;;;;;;;;;;5020722;28;20045;-67
2021/09/07 13:28:43;;;;;;;5.93;4.97;;;;;;;;;;5033059;28;20046;-68
2021/09/07 13:31:48;;;;;;;7.63;4.68;;;;;;;;;;5033063;28;20042;-73
2021/09/07 13:34:52;;;;;;;7.88;4.72;;;;;;;;;;5034125;28;20033;-74
2021/09/07 13:37:57;;;;;;;8.38;4.53;;;;;;;;;;5033417;28;20041;-74
2021/09/07 13:41:01;;;;;;;5.28;4.40;;;;;;;;;;5032615;28;20030;-73
2021/09/07 13:44:05;;;;;;;8.20;4.82;;;;;;;;;;5032057;28;20042;-68
2021/09/07 13:47:10;;;;;;;6.05;5.13;;;;;;;;;;5031594;28;20049;-68
2021/09/07 13:50:14;;;;;;;6.50;4.45;;;;;;;;;;5031542;28;20474;-67
2021/09/07 13:53:18;;;;;;;4.72;4.20;;;;;;;;;;5032076;28;20049;-69
2021/09/07 13:56:23;;;;;;;8.45;4.82;;;;;;;;;;5020026;28;20478;-71
2021/09/07 13:59:28;;;;;;;5.95;4.57;;;;;;;;;;5032274;28;20041;-79
2021/09/07 14:02:32;;;;;;;9.18;4.63;;;;;;;;;;5031855;28;20041;-71
2021/09/07 14:05:37;;;;;;;6.38;4.45;;;;;;;;;;5031836;28;20037;-70
2021/09/07 14:08:41;;;;;;;8.75;5.40;;;;;;;;;;5032244;28;20390;-67
2021/09/07 14:11:46;;;;;;;9.05;6.57;;;;;;;;;;5031478;28;20034;-67
2021/09/07 14:14:50;;;;;;;6.15;5.32;;;;;;;;;;5031826;28;20045;-70
2021/09/07 14:17:55;;;;;;;16.17;6.75;;;;;;;;;;5031669;28;20037;-70
2021/09/07 14:21:00;;;;;;;11.98;7.38;;;;;;;;;;5031021;28;20496;-65
2021/09/07 14:24:05;;;;;;;16.10;7.00;;;;;;;;;;5031509;28;20040;-68
2021/09/07 14:27:10;;;;;;;9.43;6.50;;;;;;;;;;5031262;28;20056;-73
2021/09/07 14:30:14;;;;;;;30.48;7.38;;;;;;;;;;5031778;28;20362;-70
2021/09/07 14:33:18;;;;;;;10.73;6.50;;;;;;;;;;5018908;28;20045;-69
2021/09/07 14:36:22;;;;;;;9.50;6.40;;;;;;;;;;5031277;28;20095;-70
2021/09/07 14:39:27;;;;;;;9.25;6.53;;;;;;;;;;5031134;28;20033;-67
2021/09/07 14:42:31;;;;;;;15.38;7.07;;;;;;;;;;5031069;28;20041;-67
2021/09/07 14:45:36;;;;;;;12.90;6.50;;;;;;;;;;5018651;28;20049;-69
2021/09/07 14:48:40;;;;;;;12.23;7.18;;;;;;;;;;5018602;28;20089;-69
2021/09/07 14:51:44;;;;;;;12.10;7.07;;;;;;;;;;5030915;28;20413;-70
2021/09/07 14:54:49;;;;;;;23.77;8.02;;;;;;;;;;5031595;28;20068;-71
2021/09/07 14:57:53;;;;;;;9.68;6.53;;;;;;;;;;5035245;28;20048;-69
2021/09/07 15:00:58;;;;;;;10.98;6.82;;;;;;;;;;5035417;28;20046;-69
2021/09/07 15:04:02;;;;;;;10.95;6.78;;;;;;;;;;5035110;28;20044;-69
2021/09/07 15:07:08;;;;;;;10.48;6.68;;;;;;;;;;5034661;28;20609;-68
2021/09/07 15:10:12;;;;;;;8.60;6.70;;;;;;;;;;5035301;28;20044;-68
2021/09/07 15:13:19;;;;;;;10.38;6.97;;;;;;;;;;5022255;28;20029;-71
2021/09/07 15:16:23;;;;;;;14.93;7.45;;;;;;;;;;5034790;28;20210;-68
2021/09/07 15:19:27;;;;;;;15.05;7.38;;;;;;;;;;5034550;28;20049;-70
2021/09/07 15:22:32;;;;;;;12.05;7.68;;;;;;;;;;5034357;28;20053;-72
2021/09/07 15:25:36;;;;;;;13.23;7.40;;;;;;;;;;5034033;28;20401;-70
2021/09/07 15:28:40;;;;;;;14.50;7.35;;;;;;;;;;5034295;28;20061;-71
2021/09/07 15:31:45;;;;;;;11.13;7.38;;;;;;;;;;5034379;28;20044;-71
2021/09/07 15:34:49;;;;;;;12.40;7.13;;;;;;;;;;5034074;28;20535;-68
2021/09/07 15:37:53;;;;;;;15.75;7.82;;;;;;;;;;5034213;28;20113;-72
2021/09/07 15:40:58;;;;;;;9.35;7.25;;;;;;;;;;5034561;28;20049;-68
2021/09/07 15:44:03;;;;;;;15.93;8.63;;;;;;;;;;5034646;28;20673;-70
2021/09/07 15:47:07;;;;;;;13.43;7.80;;;;;;;;;;5034121;28;20072;-68
2021/09/07 15:50:12;;;;;;;11.20;7.38;;;;;;;;;;5022190;28;20056;-75
2021/09/07 15:53:16;;;;;;;17.33;8.20;;;;;;;;;;5033985;28;20049;-68
2021/09/07 15:56:20;;;;;;;14.25;7.80;;;;;;;;;;5010706;28;20068;-72
2021/09/07 15:59:25;;;;;;;12.15;7.97;;;;;;;;;;5034475;28;20040;-70
2021/09/07 16:02:29;;;;;;;11.50;7.00;;;;;;;;;;5033386;28;20059;-70
2021/09/07 16:05:34;;;;;;;11.82;8.05;;;;;;;;;;5021739;28;20389;-69
2021/09/07 16:08:38;;;;;;;12.95;6.95;;;;;;;;;;5020568;28;20575;-69
2021/09/07 16:11:43;;;;;;;12.40;7.38;;;;;;;;;;5033826;28;20060;-71
2021/09/07 16:14:47;;;;;;;10.02;7.18;;;;;;;;;;5021608;28;20052;-69
2021/09/07 16:17:52;;;;;;;12.98;8.18;;;;;;;;;;5034328;28;20041;-69
2021/09/07 16:20:57;;;;;;;10.50;7.18;;;;;;;;;;5033323;28;20076;-73
2021/09/07 16:24:07;;;;;;;13.68;7.70;;;;;;;;;;5033825;28;20036;-71
2021/09/07 16:27:11;;;;;;;9.35;7.32;;;;;;;;;;5033558;28;20448;-72
2021/09/07 16:30:15;;;;;;;8.90;6.82;;;;;;;;;;5021316;28;20041;-73
2021/09/07 16:33:19;;;;;;;15.43;7.80;;;;;;;;;;5032846;28;20042;-68
2021/09/07 16:36:24;;;;;;;11.50;7.57;;;;;;;;;;5033420;28;20048;-73
2021/09/07 16:39:28;;;;;;;13.40;8.23;;;;;;;;;;5033851;28;20044;-75
2021/09/07 16:42:32;;;;;;;9.50;7.95;;;;;;;;;;5032895;28;20053;-72
2021/09/07 16:45:37;;;;;;;8.98;7.75;;;;;;;;;;5021902;28;20041;-76
2021/09/07 16:48:45;;;;;;;9.02;7.15;;;;;;;;;;5033324;28;20054;-71
2021/09/07 16:51:51;;;;;;;50.92;8.68;;;;;;;;;;5020438;28;20034;-67
2021/09/07 16:55:02;;;;;;;20.15;8.20;;;;;;;;;;5032694;28;20523;-69
2021/09/07 16:58:06;;;;;;;10.75;8.18;;;;;;;;;;5032799;28;20040;-72
2021/09/07 17:01:12;;;;;;;14.15;7.93;;;;;;;;;;5032510;28;20500;-67
2021/09/07 17:04:16;;;;;;;12.63;7.90;;;;;;;;;;5032242;28;20049;-66
2021/09/07 17:07:31;;;;;;;14.82;8.65;;;;;;;;;;5032364;28;20393;-69
2021/09/07 17:10:45;;;;;;;22.67;9.02;;;;;;;;;;5032419;28;20389;-68
2021/09/07 17:13:55;;;;;;;15.32;8.55;;;;;;;;;;5032241;28;20049;-71
2021/09/07 17:17:00;;;;;;;12.57;8.68;;;;;;;;;;5030592;28;20059;-69
2021/09/07 17:20:05;;;;;;;11.10;8.57;;;;;;;;;;5032198;28;20041;-71
2021/09/07 17:23:09;;;;;;;13.13;9.25;;;;;;;;;;5032099;28;20189;-71
2021/09/07 17:26:13;;;;;;;15.95;9.38;;;;;;;;;;5032442;28;20049;-70
2021/09/07 17:29:21;;;;;;;20.98;10.55;;;;;;;;;;5019739;28;20048;-69
2021/09/07 17:32:47;;;;;;;19.40;9.85;;;;;;;;;;5031892;28;20535;-69
2021/09/07 17:42:23;;;;;;;15.18;9.20;;;;;;;;;;5031506;28;20045;-69
2021/09/07 17:45:28;;;;;;;17.48;9.10;;;;;;;;;;5018851;28;20105;-68
2021/09/07 17:48:33;;;;;;;15.93;8.52;;;;;;;;;;5031518;28;20061;-69
2021/09/07 17:51:38;;;;;;;14.40;8.75;;;;;;;;;;5031502;28;20040;-69
2021/09/07 17:54:42;;;;;;;17.02;9.48;;;;;;;;;;5031239;28;20040;-69
2021/09/07 17:57:46;;;;;;;19.25;9.02;;;;;;;;;;5032149;28;20040;-69
2021/09/07 18:00:51;;;;;;;17.40;9.10;;;;;;;;;;5031436;28;20044;-68
2021/09/07 18:03:55;;;;;;;13.52;9.02;;;;;;;;;;5031208;28;20048;-69
2021/09/07 18:06:59;;;;;;;18.27;9.20;;;;;;;;;;5031600;28;20053;-69
2021/09/07 18:10:04;;;;;;;20.77;9.95;;;;;;;;;;5030908;28;20048;-69
2021/09/07 18:13:10;;;;;;;16.75;8.63;;;;;;;;;;5031163;28;20057;-69
2021/09/07 18:16:14;;;;;;;9.63;8.43;;;;;;;;;;5031594;28;20064;-69
2021/09/07 18:19:19;;;;;;;12.90;8.65;;;;;;;;;;5031028;28;20038;-70
2021/09/07 18:22:24;;;;;;;17.10;8.35;;;;;;;;;;5030761;28;20052;-68